Time;durP1;ratioP1;P1;durP2;ratioP2;P2;SDS_P1;SDS_P2;PMS_P1;PMS_P2;Temp;Humidity;BMP_temperature;BMP_pressure;BME280_temperature;BME280_humidity;BME280_pressure;Samples;Min_cycle;Max_cycle;Signal;HPM_P1;HPM_P2
2022/01/04 06:00:19;;;;;;;0.75;0.75;;;8.90;99.90;;;;;;5667658;22;20230;-69
2022/01/04 06:02:45;;;;;;;1.77;0.88;;;8.90;99.90;;;;;;5096720;28;20213;-69
2022/01/04 06:05:12;;;;;;;0.80;0.80;;;8.90;99.90;;;;;;5096677;28;20242;-69
2022/01/04 06:07:39;;;;;;;0.40;0.40;;;8.90;99.90;;;;;;5096854;28;20258;-69
2022/01/04 06:10:09;;;;;;;0.73;0.60;;;8.90;99.90;;;;;;5096757;28;20261;-69
2022/01/04 06:15:21;;;;;;;0.60;0.60;;;8.90;99.90;;;;;;5096719;28;20175;-69
2022/01/04 06:17:50;;;;;;;2.67;0.70;;;8.90;99.90;;;;;;5096751;28;20231;-69
2022/01/04 06:20:19;;;;;;;0.63;0.63;;;8.90;99.90;;;;;;5096294;28;20589;-69
2022/01/04 06:22:46;;;;;;;0.55;0.55;;;9.00;99.90;;;;;;5096321;28;20199;-69
2022/01/04 06:25:15;;;;;;;0.70;0.70;;;9.00;99.90;;;;;;5096544;28;20286;-69
2022/01/04 06:27:43;;;;;;;1.05;0.70;;;9.00;99.90;;;;;;5096402;28;20226;-71
2022/01/04 06:30:11;;;;;;;0.68;0.68;;;9.00;99.90;;;;;;5096440;28;20247;-71
2022/01/04 06:32:39;;;;;;;0.90;0.90;;;9.00;99.90;;;;;;5096514;28;20285;-71
2022/01/04 06:35:07;;;;;;;0.63;0.63;;;9.00;99.90;;;;;;5096192;28;20666;-71
2022/01/04 06:37:34;;;;;;;0.70;0.70;;;9.00;99.90;;;;;;5096564;28;20617;-72
2022/01/04 06:40:01;;;;;;;0.70;0.70;;;9.00;99.90;;;;;;5096214;28;20274;-72
2022/01/04 06:42:27;;;;;;;0.70;0.70;;;9.00;99.90;;;;;;5096284;28;20733;-72
2022/01/04 06:44:54;;;;;;;0.70;0.70;;;9.00;99.90;;;;;;5095920;28;20673;-71
2022/01/04 06:47:21;;;;;;;0.50;0.50;;;8.90;99.90;;;;;;5096190;28;20288;-72
2022/01/04 06:49:49;;;;;;;0.63;0.63;;;9.00;99.90;;;;;;5095650;28;20777;-72
2022/01/04 06:52:16;;;;;;;0.70;0.70;;;9.00;99.90;;;;;;5096207;28;20344;-72
2022/01/04 06:54:43;;;;;;;0.77;0.77;;;9.00;99.90;;;;;;5096242;28;20195;-72
2022/01/04 06:57:10;;;;;;;0.47;0.47;;;9.00;99.90;;;;;;5096232;28;20290;-72
2022/01/04 06:59:37;;;;;;;0.60;0.60;;;9.00;99.90;;;;;;5096037;28;20254;-72
2022/01/04 07:02:04;;;;;;;0.75;0.75;;;9.00;99.90;;;;;;5095626;28;20235;-72
2022/01/04 07:04:31;;;;;;;0.60;0.60;;;9.00;99.90;;;;;;5095890;28;20284;-72
2022/01/04 07:06:59;;;;;;;0.60;0.60;;;9.00;99.90;;;;;;5095924;28;20206;-71
2022/01/04 07:09:26;;;;;;;0.60;0.60;;;9.10;99.90;;;;;;5095128;28;20227;-71
2022/01/04 07:11:54;;;;;;;0.55;0.55;;;9.10;99.90;;;;;;5095471;28;20642;-72
2022/01/04 07:14:21;;;;;;;0.50;0.50;;;9.10;99.90;;;;;;5095677;28;20252;-72
2022/01/04 07:16:48;;;;;;;0.52;0.52;;;9.10;99.90;;;;;;5095672;28;20290;-72
2022/01/04 07:19:15;;;;;;;0.65;0.65;;;9.10;99.90;;;;;;5095537;28;20191;-72
2022/01/04 07:21:42;;;;;;;0.50;0.50;;;9.10;99.90;;;;;;5095221;28;20684;-72
2022/01/04 07:24:10;;;;;;;0.55;0.55;;;9.20;99.90;;;;;;5095525;28;20199;-72
2022/01/04 07:26:37;;;;;;;0.60;0.60;;;9.20;99.90;;;;;;5095401;28;20214;-72
2022/01/04 07:29:04;;;;;;;0.50;0.50;;;9.20;99.90;;;;;;5095413;28;20223;-72
2022/01/04 07:31:31;;;;;;;0.63;0.63;;;9.20;99.90;;;;;;5095304;28;20270;-72
2022/01/04 07:33:58;;;;;;;0.73;0.70;;;9.20;99.90;;;;;;5095283;28;20196;-72
2022/01/04 07:36:25;;;;;;;0.50;0.50;;;9.20;99.90;;;;;;5095337;28;20222;-72
2022/01/04 07:38:52;;;;;;;0.63;0.63;;;9.20;99.90;;;;;;5095247;28;20191;-70
2022/01/04 07:41:20;;;;;;;0.40;0.40;;;9.20;99.90;;;;;;5095132;28;20220;-70
2022/01/04 07:43:47;;;;;;;0.55;0.55;;;9.20;99.90;;;;;;5095033;28;20577;-70
2022/01/04 07:46:14;;;;;;;0.70;0.70;;;9.20;99.90;;;;;;5094708;28;20635;-70
2022/01/04 07:48:41;;;;;;;0.50;0.50;;;9.20;99.90;;;;;;5094589;28;20772;-69
2022/01/04 07:51:08;;;;;;;0.88;0.88;;;9.30;99.90;;;;;;5094526;28;20229;-69
2022/01/04 07:53:35;;;;;;;0.77;0.77;;;9.30;99.90;;;;;;5094961;28;20289;-69
2022/01/04 07:56:02;;;;;;;0.80;0.80;;;9.30;99.90;;;;;;5094515;28;20658;-68
2022/01/04 07:58:30;;;;;;;0.82;0.80;;;9.30;99.90;;;;;;5094636;28;20233;-68
2022/01/04 08:00:57;;;;;;;0.90;0.90;;;9.30;99.90;;;;;;5094071;28;20227;-68
2022/01/04 08:03:24;;;;;;;0.90;0.90;;;9.30;99.90;;;;;;5094693;28;20210;-68
2022/01/04 08:05:51;;;;;;;0.68;0.68;;;9.30;99.90;;;;;;5094331;28;20242;-68
2022/01/04 08:08:18;;;;;;;0.68;0.68;;;9.40;99.90;;;;;;5094586;28;20223;-68
2022/01/04 08:10:46;;;;;;;0.82;0.80;;;9.40;99.90;;;;;;5094451;28;20305;-69
2022/01/04 08:13:13;;;;;;;0.90;0.90;;;9.40;99.90;;;;;;5094461;28;20210;-69
2022/01/04 08:15:41;;;;;;;0.60;0.60;;;9.40;99.90;;;;;;5094428;28;20289;-69
2022/01/04 08:18:08;;;;;;;0.52;0.52;;;9.40;99.90;;;;;;5094088;28;20637;-69
2022/01/04 08:20:36;;;;;;;0.70;0.70;;;9.50;99.90;;;;;;5093514;28;20303;-69
2022/01/04 08:23:03;;;;;;;0.50;0.50;;;9.50;99.90;;;;;;5094361;28;20199;-69
2022/01/04 08:25:30;;;;;;;0.60;0.60;;;9.50;99.90;;;;;;5094320;28;20210;-69
2022/01/04 08:27:57;;;;;;;0.75;0.75;;;9.50;99.90;;;;;;5094166;28;20268;-69
2022/01/04 08:30:24;;;;;;;1.35;0.80;;;9.50;99.90;;;;;;5093921;28;20769;-69
2022/01/04 08:32:53;;;;;;;0.93;0.90;;;9.50;99.90;;;;;;5094161;28;20290;-70
2022/01/04 08:35:20;;;;;;;0.70;0.70;;;9.50;99.90;;;;;;5094043;28;20206;-70
2022/01/04 08:37:47;;;;;;;0.88;0.88;;;9.60;99.90;;;;;;5094139;28;20286;-69
2022/01/04 08:40:13;;;;;;;1.00;1.00;;;9.60;99.90;;;;;;5094051;28;20221;-69
2022/01/04 08:42:40;;;;;;;0.75;0.75;;;9.60;99.90;;;;;;5094053;28;20385;-68
2022/01/04 08:45:09;;;;;;;0.60;0.60;;;9.70;99.90;;;;;;5094110;28;20286;-68
2022/01/04 08:47:36;;;;;;;0.73;0.73;;;9.80;99.90;;;;;;5093671;28;20290;-68
2022/01/04 08:50:07;;;;;;;0.80;0.80;;;9.80;99.90;;;;;;5093484;28;20229;-68
2022/01/04 08:52:33;;;;;;;0.80;0.80;;;9.90;99.90;;;;;;5094452;28;20294;-68
2022/01/04 08:55:00;;;;;;;0.70;0.70;;;10.00;99.90;;;;;;5093839;28;20287;-68
2022/01/04 08:57:27;;;;;;;0.63;0.63;;;10.00;99.90;;;;;;5093899;28;20207;-68
2022/01/04 08:59:55;;;;;;;1.00;1.00;;;10.10;99.90;;;;;;5094126;28;20221;-69
2022/01/04 09:02:23;;;;;;;1.70;0.73;;;10.20;99.90;;;;;;5093219;28;20559;-69
2022/01/04 09:04:50;;;;;;;0.70;0.70;;;10.20;99.90;;;;;;5093730;28;20233;-69
2022/01/04 09:07:19;;;;;;;0.60;0.60;;;10.10;99.90;;;;;;5093289;28;20225;-70
2022/01/04 09:09:46;;;;;;;0.63;0.63;;;10.10;99.90;;;;;;5093328;28;20227;-69
2022/01/04 09:12:14;;;;;;;0.68;0.68;;;10.20;99.90;;;;;;5093272;28;20638;-69
2022/01/04 09:14:54;;;;;;;0.60;0.60;;;10.20;99.90;;;;;;5093596;28;20187;-69
2022/01/04 10:43:08;;;;;;;0.73;0.73;;;11.30;99.90;;;;;;5190479;22;20231;-70
2022/01/04 10:45:36;;;;;;;0.73;0.73;;;11.40;99.90;;;;;;5098141;28;20552;-67
2022/01/04 10:48:19;;;;;;;0.82;0.82;;;11.40;99.90;;;;;;5100245;28;20199;-68
2022/01/04 10:50:48;;;;;;;0.70;0.70;;;11.40;99.90;;;;;;5100658;28;20638;-69
2022/01/04 10:53:22;;;;;;;0.50;0.50;;;11.50;99.90;;;;;;5100404;28;20272;-69
2022/01/04 10:55:50;;;;;;;0.70;0.70;;;11.60;99.90;;;;;;5099752;28;20635;-68
2022/01/04 10:58:40;;;;;;;1.10;0.60;;;11.60;99.90;;;;;;5098845;28;20294;-68
2022/01/04 11:01:10;;;;;;;0.70;0.70;;;11.70;99.90;;;;;;5093976;28;20234;-68
2022/01/04 11:03:38;;;;;;;0.93;0.70;;;11.80;99.90;;;;;;5097302;28;20658;-68
2022/01/04 11:06:08;;;;;;;0.68;0.68;;;11.90;99.90;;;;;;5095650;28;20294;-68
2022/01/04 11:08:35;;;;;;;0.70;0.70;;;11.90;99.90;;;;;;5095449;28;20705;-68
2022/01/04 11:11:03;;;;;;;1.10;0.85;;;12.00;99.90;;;;;;5097375;28;20257;-68
2022/01/04 11:13:30;;;;;;;0.50;0.50;;;12.10;99.90;;;;;;5098777;28;20203;-68
2022/01/04 11:16:01;;;;;;;0.50;0.50;;;12.30;99.90;;;;;;5096836;28;20196;-69
2022/01/04 11:18:28;;;;;;;0.60;0.60;;;12.50;99.90;;;;;;5098543;28;20184;-70
2022/01/04 11:20:56;;;;;;;0.60;0.60;;;12.60;99.90;;;;;;5098553;28;20207;-68
2022/01/04 11:23:25;;;;;;;1.00;1.00;;;12.70;99.90;;;;;;5098023;28;20203;-68
2022/01/04 11:25:54;;;;;;;1.65;0.90;;;12.80;99.90;;;;;;5098938;28;20184;-68
2022/01/04 11:28:23;;;;;;;0.80;0.80;;;13.00;99.90;;;;;;5099109;28;20225;-69
2022/01/04 11:31:03;;;;;;;1.52;0.90;;;12.90;99.90;;;;;;5099155;28;20199;-69
2022/01/04 11:33:44;;;;;;;1.10;0.90;;;13.00;99.90;;;;;;5099141;28;20194;-70
2022/01/04 11:36:14;;;;;;;0.70;0.70;;;12.90;99.90;;;;;;5098971;28;20184;-68
2022/01/04 11:38:41;;;;;;;0.77;0.75;;;12.80;99.90;;;;;;5097566;28;20260;-68
2022/01/04 11:41:20;;;;;;;0.50;0.50;;;12.80;99.90;;;;;;5098115;28;20219;-68
2022/01/04 11:43:48;;;;;;;0.60;0.60;;;12.70;99.90;;;;;;5099065;28;20308;-68
2022/01/04 11:46:33;;;;;;;0.93;0.82;;;12.70;99.90;;;;;;5099763;28;20230;-68
2022/01/04 11:49:09;;;;;;;1.00;1.00;;;12.60;99.90;;;;;;5099868;28;20206;-68
2022/01/04 11:51:44;;;;;;;1.27;1.27;;;12.60;99.90;;;;;;5097149;28;20231;-73
2022/01/04 11:54:20;;;;;;;0.80;0.80;;;12.50;99.90;;;;;;5095001;28;20297;-69
2022/01/04 11:56:49;;;;;;;0.77;0.77;;;12.50;99.90;;;;;;5094753;28;20190;-69
2022/01/04 11:59:20;;;;;;;0.75;0.75;;;12.50;99.90;;;;;;5094454;28;20736;-69
2022/01/04 12:01:48;;;;;;;0.90;0.90;;;12.50;99.90;;;;;;5094516;28;20223;-69
2022/01/04 12:04:52;;;;;;;1.38;0.95;;;12.40;99.90;;;;;;5094582;28;20290;-69
2022/01/04 12:07:53;;;;;;;0.90;0.90;;;12.30;99.90;;;;;;5094614;28;20253;-69
2022/01/04 12:10:39;;;;;;;0.82;0.82;;;12.20;99.90;;;;;;5012336;28;20210;-69
2022/01/04 12:13:09;;;;;;;0.90;0.90;;;12.10;99.90;;;;;;5012211;28;20245;-69
2022/01/04 12:15:51;;;;;;;1.00;1.00;;;12.10;99.90;;;;;;5061854;28;20203;-69
2022/01/04 12:19:00;;;;;;;1.17;1.10;;;12.00;99.90;;;;;;5094639;28;20187;-69
2022/01/04 12:21:40;;;;;;;1.70;1.10;;;12.00;99.90;;;;;;5094242;28;20273;-69
2022/01/04 12:24:10;;;;;;;1.05;1.05;;;11.90;99.90;;;;;;5094164;28;20193;-69
2022/01/04 12:26:38;;;;;;;0.90;0.90;;;11.80;99.90;;;;;;5094024;28;20289;-68
2022/01/04 12:29:26;;;;;;;1.92;1.48;;;11.70;99.90;;;;;;5094220;28;20211;-67
2022/01/04 12:32:02;;;;;;;0.90;0.90;;;11.70;99.90;;;;;;5094082;28;20698;-69
2022/01/04 12:35:03;;;;;;;1.15;1.15;;;11.60;99.90;;;;;;5094489;28;20206;-68
2022/01/04 12:37:36;;;;;;;1.30;1.17;;;11.50;99.90;;;;;;5091739;28;20206;-67
2022/01/04 12:40:04;;;;;;;1.05;1.05;;;11.50;99.90;;;;;;5094045;28;20200;-67
2022/01/04 12:42:31;;;;;;;1.40;1.10;;;11.50;99.90;;;;;;5093666;28;20309;-67
2022/01/04 12:44:59;;;;;;;0.85;0.85;;;11.50;99.90;;;;;;5094061;28;20274;-68
2022/01/04 12:47:27;;;;;;;1.75;1.00;;;11.50;99.90;;;;;;5093951;28;20286;-67
2022/01/04 12:49:58;;;;;;;1.23;1.10;;;11.50;99.90;;;;;;5093533;28;20711;-68
2022/01/04 12:52:25;;;;;;;0.98;0.98;;;11.40;99.90;;;;;;5093873;28;20282;-67
2022/01/04 12:54:53;;;;;;;2.05;0.80;;;11.30;99.90;;;;;;5093580;28;20203;-67
2022/01/04 12:57:23;;;;;;;0.77;0.77;;;11.30;99.90;;;;;;5093810;28;20290;-67
2022/01/04 12:59:53;;;;;;;1.38;1.27;;;11.20;99.90;;;;;;5093823;28;20223;-67
2022/01/04 13:02:22;;;;;;;1.45;1.35;;;11.10;99.90;;;;;;5093398;28;20315;-66
2022/01/04 13:04:52;;;;;;;1.75;1.20;;;11.10;99.90;;;;;;5093636;28;20674;-66
2022/01/04 13:07:26;;;;;;;1.55;0.93;;;11.00;99.90;;;;;;5093905;28;20233;-68
2022/01/04 13:09:59;;;;;;;1.02;1.02;;;10.90;99.90;;;;;;5094261;28;20210;-68
2022/01/04 13:12:29;;;;;;;0.75;0.75;;;10.90;99.90;;;;;;5093899;28;20238;-69
2022/01/04 13:14:58;;;;;;;0.88;0.88;;;10.90;99.90;;;;;;5093865;28;20207;-68
2022/01/04 13:17:27;;;;;;;0.82;0.82;;;10.80;99.90;;;;;;5093655;28;20205;-70
2022/01/04 13:19:55;;;;;;;1.23;1.23;;;10.80;99.90;;;;;;5093666;28;20195;-67
2022/01/04 13:22:24;;;;;;;1.35;1.10;;;10.70;99.90;;;;;;5093551;28;20223;-68
2022/01/04 13:24:54;;;;;;;1.17;1.10;;;10.70;99.90;;;;;;5093142;28;20290;-68
2022/01/04 13:27:28;;;;;;;0.80;0.80;;;10.70;99.90;;;;;;5093288;28;20207;-68
2022/01/04 13:29:56;;;;;;;1.15;1.00;;;10.70;99.90;;;;;;5093466;28;20245;-68
2022/01/04 13:32:25;;;;;;;1.48;1.00;;;10.70;99.90;;;;;;5093076;28;20215;-68
2022/01/04 13:34:55;;;;;;;0.93;0.77;;;10.60;99.90;;;;;;5093573;28;20286;-68
2022/01/04 13:37:22;;;;;;;1.25;1.15;;;10.70;99.90;;;;;;5093769;28;20237;-69
2022/01/04 13:39:50;;;;;;;1.40;1.30;;;10.70;99.90;;;;;;5093411;28;20186;-69
2022/01/04 13:42:36;;;;;;;1.23;1.10;;;10.70;99.90;;;;;;5093310;28;20310;-68
2022/01/04 13:45:10;;;;;;;1.13;1.00;;;10.70;99.90;;;;;;5093256;28;20643;-68
2022/01/04 13:47:39;;;;;;;0.93;0.93;;;10.70;99.90;;;;;;5093624;28;20732;-68
2022/01/04 13:50:25;;;;;;;0.80;0.80;;;10.70;99.90;;;;;;5093565;28;20306;-69
2022/01/04 13:53:11;;;;;;;1.63;1.10;;;10.60;99.90;;;;;;5093326;28;20258;-69
2022/01/04 13:56:03;;;;;;;1.10;0.95;;;10.60;99.90;;;;;;5093441;28;20614;-69
2022/01/04 13:58:40;;;;;;;1.23;1.13;;;10.60;99.90;;;;;;5093515;28;20188;-69
2022/01/04 14:01:12;;;;;;;2.35;1.10;;;10.50;99.90;;;;;;5093058;28;20254;-69
2022/01/04 14:03:40;;;;;;;1.27;0.88;;;10.50;99.90;;;;;;5093334;28;20658;-69
2022/01/04 14:06:26;;;;;;;1.10;1.10;;;10.50;99.90;;;;;;5093351;28;20268;-70
2022/01/04 14:08:54;;;;;;;0.82;0.82;;;10.50;99.90;;;;;;5092871;28;20709;-69
2022/01/04 14:11:25;;;;;;;0.80;0.80;;;10.50;99.90;;;;;;5092865;28;20251;-69
2022/01/04 14:13:54;;;;;;;0.95;0.95;;;10.40;99.90;;;;;;5092909;28;20290;-69
2022/01/04 14:16:23;;;;;;;0.90;0.90;;;10.40;99.90;;;;;;5092913;28;20290;-69
2022/01/04 14:19:06;;;;;;;0.88;0.88;;;10.40;99.90;;;;;;5095216;28;20234;-69
2022/01/04 14:21:35;;;;;;;1.00;1.00;;;10.30;99.90;;;;;;5096715;28;20306;-69
2022/01/04 14:24:04;;;;;;;1.10;1.10;;;10.30;99.90;;;;;;5096365;28;20723;-69
2022/01/04 14:26:32;;;;;;;1.10;1.10;;;10.20;99.90;;;;;;5096771;28;20203;-69
2022/01/04 14:29:02;;;;;;;0.70;0.70;;;10.20;99.90;;;;;;5096512;28;20610;-69
2022/01/04 14:31:28;;;;;;;1.40;1.30;;;10.20;99.90;;;;;;5096440;28;20250;-69
2022/01/04 14:33:55;;;;;;;1.23;1.15;;;10.20;99.90;;;;;;5096630;28;20199;-70
2022/01/04 14:36:22;;;;;;;1.05;1.05;;;10.10;99.90;;;;;;5096632;28;20223;-69
2022/01/04 14:38:49;;;;;;;1.10;1.10;;;10.20;99.90;;;;;;5096482;28;20633;-70
2022/01/04 14:41:16;;;;;;;0.95;0.95;;;10.20;99.90;;;;;;5096116;28;20757;-70
2022/01/04 14:43:43;;;;;;;1.15;1.10;;;10.10;99.90;;;;;;5096078;28;20250;-70
2022/01/04 14:46:11;;;;;;;1.15;0.93;;;10.10;99.90;;;;;;5096285;28;20290;-69
2022/01/04 14:48:38;;;;;;;0.70;0.70;;;10.10;99.90;;;;;;5097214;28;20298;-70
2022/01/04 14:51:04;;;;;;;1.63;1.13;;;10.20;99.90;;;;;;5096297;28;20277;-69
2022/01/04 14:53:31;;;;;;;0.80;0.80;;;10.20;99.90;;;;;;5096316;28;20276;-70
2022/01/04 14:55:58;;;;;;;1.60;0.80;;;10.20;99.90;;;;;;5095943;28;20227;-69
2022/01/04 14:58:25;;;;;;;0.70;0.70;;;10.20;99.90;;;;;;5096096;28;20250;-69
2022/01/04 15:00:53;;;;;;;0.90;0.90;;;10.30;99.90;;;;;;5096172;28;20735;-69
2022/01/04 15:03:21;;;;;;;2.35;0.90;;;10.30;99.90;;;;;;5096137;28;20252;-69
2022/01/04 15:05:48;;;;;;;0.82;0.68;;;10.30;99.90;;;;;;5095657;28;20245;-69
2022/01/04 15:08:15;;;;;;;1.13;0.93;;;10.40;99.90;;;;;;5095985;28;20612;-70
2022/01/04 15:10:42;;;;;;;1.40;1.30;;;10.40;99.90;;;;;;5095838;28;20211;-69
2022/01/04 15:13:09;;;;;;;1.60;1.33;;;10.40;99.90;;;;;;5095487;28;20259;-69
2022/01/04 15:15:37;;;;;;;0.90;0.90;;;10.40;99.90;;;;;;5095462;28;20199;-70
2022/01/04 15:18:04;;;;;;;0.93;0.93;;;10.40;99.90;;;;;;5095714;28;20199;-69
2022/01/04 15:20:35;;;;;;;0.95;0.93;;;10.40;99.90;;;;;;5095503;28;20195;-69
2022/01/04 15:23:01;;;;;;;1.65;0.80;;;10.40;99.90;;;;;;5095239;28;20717;-69
2022/01/04 15:25:28;;;;;;;0.70;0.70;;;10.40;99.90;;;;;;5095148;28;20733;-69
2022/01/04 15:27:57;;;;;;;0.90;0.70;;;10.50;99.90;;;;;;5095404;28;20199;-69
2022/01/04 15:30:24;;;;;;;0.57;0.57;;;10.50;99.90;;;;;;5095166;28;20226;-70
2022/01/04 15:32:51;;;;;;;0.82;0.70;;;10.50;99.90;;;;;;5095399;28;20223;-70
2022/01/04 15:35:18;;;;;;;1.08;0.90;;;10.50;99.90;;;;;;5094943;28;20293;-69
2022/01/04 15:37:46;;;;;;;0.82;0.82;;;10.50;99.90;;;;;;5095374;28;20242;-69
2022/01/04 15:40:15;;;;;;;0.70;0.70;;;10.50;99.90;;;;;;5094867;28;20709;-69
2022/01/04 15:42:43;;;;;;;0.80;0.80;;;10.50;99.90;;;;;;5094935;28;20233;-69
2022/01/04 15:45:11;;;;;;;0.93;0.90;;;10.50;99.90;;;;;;5094876;28;20298;-70
2022/01/04 15:47:38;;;;;;;1.52;0.70;;;10.50;99.90;;;;;;5095099;28;20290;-70
2022/01/04 15:50:06;;;;;;;0.60;0.60;;;10.50;99.90;;;;;;5095128;28;20237;-70
2022/01/04 15:52:33;;;;;;;1.00;1.00;;;10.60;99.90;;;;;;5095141;28;20226;-70
2022/01/04 15:55:03;;;;;;;0.98;0.98;;;10.60;99.90;;;;;;5094969;28;20293;-69
2022/01/04 15:57:30;;;;;;;0.70;0.70;;;10.60;99.90;;;;;;5094844;28;20203;-69
2022/01/04 15:59:57;;;;;;;0.75;0.75;;;10.60;99.90;;;;;;5094515;28;20199;-69
2022/01/04 16:02:24;;;;;;;0.80;0.80;;;10.60;99.90;;;;;;5094770;28;20251;-70
2022/01/04 16:04:51;;;;;;;1.20;1.15;;;10.60;99.90;;;;;;5094712;28;20291;-70
2022/01/04 16:07:18;;;;;;;1.13;1.02;;;10.50;99.90;;;;;;5094644;28;20253;-69
2022/01/04 16:09:46;;;;;;;1.13;1.00;;;10.50;99.90;;;;;;5094241;28;20678;-71
2022/01/04 16:12:14;;;;;;;3.08;1.30;;;10.60;99.90;;;;;;5094991;28;20220;-71
2022/01/04 16:14:42;;;;;;;1.27;1.08;;;10.50;99.90;;;;;;5094490;28;20291;-72
2022/01/04 16:17:20;;;;;;;1.35;0.90;;;10.50;99.90;;;;;;5094518;28;20199;-72
2022/01/04 16:22:32;;;;;;;1.60;1.45;;;10.50;99.90;;;;;;5094435;28;20217;-72
2022/01/04 16:24:59;;;;;;;1.00;1.00;;;10.50;99.90;;;;;;5094415;28;20205;-71
2022/01/04 16:27:28;;;;;;;0.75;0.70;;;10.50;99.90;;;;;;5094645;28;20270;-72
2022/01/04 16:29:56;;;;;;;2.28;0.88;;;10.50;99.90;;;;;;5094203;28;20306;-71
2022/01/04 16:32:24;;;;;;;0.73;0.73;;;10.50;99.90;;;;;;5093985;28;20662;-73
2022/01/04 16:34:51;;;;;;;0.73;0.73;;;10.50;99.90;;;;;;5094093;28;20293;-73
2022/01/04 16:37:18;;;;;;;0.90;0.85;;;10.50;99.90;;;;;;5094165;28;20196;-72
2022/01/04 16:39:46;;;;;;;1.25;0.80;;;10.50;99.90;;;;;;5094806;28;20288;-73
2022/01/04 16:42:13;;;;;;;0.90;0.90;;;10.40;99.90;;;;;;5093292;28;20305;-73
2022/01/04 16:44:42;;;;;;;1.05;0.93;;;10.40;99.90;;;;;;5094177;28;20274;-72
2022/01/04 16:47:09;;;;;;;0.70;0.70;;;10.40;99.90;;;;;;5094552;28;20293;-72
2022/01/04 16:49:36;;;;;;;1.08;1.08;;;10.40;99.90;;;;;;5094007;28;20199;-72
2022/01/04 16:52:03;;;;;;;0.80;0.80;;;10.40;99.90;;;;;;5093891;28;20223;-72
2022/01/04 16:54:31;;;;;;;1.45;1.13;;;10.40;99.90;;;;;;5093732;28;20558;-73
2022/01/04 16:57:00;;;;;;;0.93;0.82;;;10.30;99.90;;;;;;5094144;28;20285;-73
2022/01/04 16:59:27;;;;;;;0.75;0.75;;;10.30;99.90;;;;;;5093969;28;20223;-72
2022/01/04 17:01:55;;;;;;;1.02;0.80;;;10.30;99.90;;;;;;5093920;28;20636;-73
2022/01/04 17:04:27;;;;;;;0.70;0.70;;;10.30;99.90;;;;;;5093801;28;20305;-73
2022/01/04 17:06:54;;;;;;;0.80;0.80;;;10.30;99.90;;;;;;5093643;28;20630;-73
2022/01/04 17:09:25;;;;;;;0.98;0.98;;;10.20;99.90;;;;;;5093816;28;20234;-72
2022/01/04 17:11:55;;;;;;;0.88;0.88;;;10.30;99.90;;;;;;5093521;28;20255;-73
2022/01/04 17:17:08;;;;;;;0.90;0.90;;;10.20;99.90;;;;;;5093507;28;20578;-72
2022/01/04 17:19:35;;;;;;;1.75;0.88;;;10.10;99.90;;;;;;5093201;28;20641;-74
2022/01/04 17:22:03;;;;;;;0.82;0.82;;;10.10;99.90;;;;;;5093110;28;20766;-73
2022/01/04 17:24:29;;;;;;;0.95;0.95;;;10.10;99.90;;;;;;5093278;28;20290;-73
2022/01/04 17:26:56;;;;;;;1.02;1.02;;;10.10;99.90;;;;;;5093283;28;20293;-73
2022/01/04 17:29:23;;;;;;;0.93;0.93;;;10.10;99.90;;;;;;5093800;28;20289;-72
2022/01/04 17:31:53;;;;;;;0.80;0.80;;;10.10;99.90;;;;;;5093100;28;20309;-72
2022/01/04 17:34:22;;;;;;;0.88;0.88;;;10.10;99.90;;;;;;5093767;28;20202;-73
2022/01/04 17:36:51;;;;;;;1.02;1.02;;;10.10;99.90;;;;;;5093303;28;20768;-72
2022/01/04 17:39:17;;;;;;;0.90;0.90;;;10.10;99.90;;;;;;5093304;28;20252;-72
2022/01/04 17:41:45;;;;;;;0.90;0.90;;;10.10;99.90;;;;;;5093155;28;20302;-72
2022/01/04 17:44:11;;;;;;;1.00;1.00;;;10.00;99.90;;;;;;5092455;28;20693;-72
2022/01/04 17:46:38;;;;;;;0.90;0.90;;;10.00;99.90;;;;;;5092325;28;20733;-72
2022/01/04 17:49:06;;;;;;;1.10;1.00;;;9.90;99.90;;;;;;5092643;28;20629;-70
2022/01/04 17:51:35;;;;;;;1.10;1.10;;;9.70;99.90;;;;;;5092270;28;20224;-73
2022/01/04 17:54:03;;;;;;;0.90;0.90;;;9.60;99.90;;;;;;5095682;28;20734;-73
2022/01/04 17:56:30;;;;;;;0.65;0.65;;;9.50;99.90;;;;;;5095918;28;20270;-72
2022/01/04 17:58:57;;;;;;;0.82;0.82;;;9.40;99.90;;;;;;5095790;28;20294;-73
2022/01/04 18:01:24;;;;;;;0.60;0.60;;;9.30;99.90;;;;;;5095859;28;20302;-73
2022/01/04 18:03:51;;;;;;;0.70;0.70;;;9.20;99.90;;;;;;5095854;28;20286;-72
2022/01/04 18:06:18;;;;;;;0.60;0.60;;;9.10;99.90;;;;;;5095608;28;20249;-72
2022/01/04 18:08:46;;;;;;;0.60;0.60;;;9.00;99.90;;;;;;5095357;28;20290;-72
2022/01/04 18:11:13;;;;;;;0.65;0.65;;;8.90;99.90;;;;;;5095271;28;20309;-72
2022/01/04 18:13:41;;;;;;;0.52;0.50;;;8.80;99.90;;;;;;5095758;28;20210;-71
2022/01/04 18:16:08;;;;;;;0.60;0.60;;;8.70;99.90;;;;;;5095799;28;20196;-72
2022/01/04 18:18:36;;;;;;;0.68;0.68;;;8.60;99.90;;;;;;5095451;28;20199;-71
2022/01/04 18:21:03;;;;;;;0.70;0.70;;;8.50;99.90;;;;;;5095672;28;20247;-71
2022/01/04 18:23:30;;;;;;;0.70;0.70;;;8.40;99.90;;;;;;5095591;28;20270;-72
2022/01/04 18:25:58;;;;;;;0.63;0.60;;;8.40;99.90;;;;;;5095709;28;20203;-70
2022/01/04 18:28:26;;;;;;;0.35;0.35;;;8.40;99.90;;;;;;5095543;28;20203;-71
2022/01/04 18:30:54;;;;;;;0.60;0.60;;;8.30;99.90;;;;;;5095214;28;20554;-71
2022/01/04 18:33:21;;;;;;;0.57;0.57;;;8.30;99.90;;;;;;5095519;28;20207;-71
2022/01/04 18:35:47;;;;;;;0.60;0.60;;;8.20;99.90;;;;;;5095335;28;20611;-71
2022/01/04 18:38:17;;;;;;;0.57;0.57;;;8.20;99.90;;;;;;5095301;28;20195;-71
2022/01/04 18:40:46;;;;;;;0.50;0.50;;;8.20;99.90;;;;;;5095232;28;20198;-72
2022/01/04 18:43:15;;;;;;;0.50;0.50;;;8.10;99.90;;;;;;5057557;28;1080945;-71
2022/01/04 18:45:42;;;;;;;0.70;0.70;;;8.10;99.90;;;;;;5096266;28;20203;-69
2022/01/04 18:48:10;;;;;;;0.90;0.90;;;8.00;99.90;;;;;;5096243;28;20199;-72
2022/01/04 18:50:38;;;;;;;0.60;0.60;;;7.90;99.90;;;;;;5095866;28;20290;-73
2022/01/04 18:53:04;;;;;;;0.60;0.60;;;7.80;99.90;;;;;;5096277;28;20305;-73
2022/01/04 18:55:31;;;;;;;0.70;0.70;;;7.60;99.90;;;;;;5095804;28;20304;-72
2022/01/04 18:57:58;;;;;;;0.60;0.60;;;7.60;99.90;;;;;;5095486;28;20734;-72
2022/01/04 19:00:28;;;;;;;0.60;0.60;;;7.50;99.90;;;;;;5096002;28;20260;-72
2022/01/04 19:02:55;;;;;;;0.50;0.50;;;7.40;99.90;;;;;;5096050;28;20223;-72
2022/01/04 19:05:22;;;;;;;0.50;0.50;;;7.30;99.90;;;;;;5095278;28;20226;-72
2022/01/04 19:07:49;;;;;;;0.68;0.68;;;7.30;99.90;;;;;;5095627;28;20639;-72
2022/01/04 19:10:16;;;;;;;0.50;0.50;;;7.20;99.90;;;;;;5095476;28;20633;-71
2022/01/04 19:12:43;;;;;;;0.90;0.90;;;7.10;99.90;;;;;;5095344;28;20313;-70
2022/01/04 19:15:10;;;;;;;0.60;0.60;;;7.10;99.90;;;;;;5095590;28;20392;-68
2022/01/04 19:17:39;;;;;;;0.68;0.68;;;7.00;99.90;;;;;;5095633;28;20207;-70
2022/01/04 19:20:09;;;;;;;0.52;0.52;;;7.00;99.90;;;;;;5095546;28;20203;-70
2022/01/04 19:22:36;;;;;;;0.60;0.60;;;6.90;99.90;;;;;;5095481;28;20265;-70
2022/01/04 19:25:03;;;;;;;0.60;0.60;;;6.80;99.90;;;;;;5095454;28;20286;-70
2022/01/04 19:27:30;;;;;;;0.50;0.50;;;6.70;99.90;;;;;;5119097;22;20261;-71
2022/01/04 19:29:56;;;;;;;0.68;0.68;;;6.60;99.90;;;;;;5095421;28;20266;-72
2022/01/04 19:33:07;;;;;;;0.50;0.50;;;6.50;99.90;;;;;;5095320;28;20250;-71
2022/01/04 19:38:19;;;;;;;0.60;0.60;;;6.40;99.90;;;;;;5094789;28;20725;-71
2022/01/04 19:40:46;;;;;;;0.63;0.50;;;6.30;99.90;;;;;;5094982;28;20199;-71
2022/01/04 19:43:13;;;;;;;0.40;0.40;;;6.20;99.90;;;;;;5094667;28;20287;-71
2022/01/04 19:45:40;;;;;;;0.50;0.50;;;6.10;99.90;;;;;;5095152;28;20282;-71
2022/01/04 19:48:07;;;;;;;0.50;0.50;;;6.00;99.90;;;;;;5094913;28;20219;-71
2022/01/04 19:50:36;;;;;;;0.50;0.50;;;6.00;99.90;;;;;;5094569;28;20289;-71
2022/01/04 19:53:03;;;;;;;0.50;0.50;;;6.00;99.90;;;;;;5094744;28;20259;-71
2022/01/04 19:55:30;;;;;;;0.50;0.50;;;5.90;99.90;;;;;;5094730;28;20199;-72
2022/01/04 19:57:58;;;;;;;0.43;0.43;;;5.90;99.90;;;;;;5094788;28;20230;-71
2022/01/04 20:00:25;;;;;;;0.40;0.40;;;5.80;99.90;;;;;;5094469;28;20289;-72
2022/01/04 20:02:52;;;;;;;0.47;0.47;;;5.80;99.90;;;;;;5094791;28;20248;-73
2022/01/04 20:05:19;;;;;;;0.40;0.40;;;5.70;99.90;;;;;;5094654;28;20206;-72
2022/01/04 20:07:47;;;;;;;0.40;0.40;;;5.70;99.90;;;;;;5094358;28;20223;-72
2022/01/04 20:10:14;;;;;;;0.50;0.50;;;5.60;99.90;;;;;;5094569;28;20225;-72
2022/01/04 20:12:42;;;;;;;0.40;0.40;;;5.60;99.90;;;;;;5094331;28;20215;-72
2022/01/04 20:15:10;;;;;;;0.45;0.45;;;5.50;99.90;;;;;;5093423;28;20203;-72
2022/01/04 20:17:37;;;;;;;0.50;0.50;;;5.40;99.90;;;;;;5094182;28;20223;-73
2022/01/04 20:20:05;;;;;;;0.57;0.57;;;5.30;99.90;;;;;;5094578;28;20203;-73
2022/01/04 20:22:32;;;;;;;0.50;0.50;;;5.30;99.90;;;;;;5094121;28;20673;-72
2022/01/04 20:25:01;;;;;;;0.45;0.45;;;5.30;99.90;;;;;;5094498;28;20286;-72
2022/01/04 20:27:28;;;;;;;0.60;0.60;;;5.20;99.90;;;;;;5093743;28;20276;-72
2022/01/04 20:29:55;;;;;;;0.50;0.50;;;5.20;99.90;;;;;;5094276;28;20188;-73
2022/01/04 20:32:22;;;;;;;0.60;0.60;;;5.20;99.90;;;;;;5094262;28;20309;-72
2022/01/04 20:34:49;;;;;;;0.50;0.50;;;5.10;99.90;;;;;;5093712;28;20234;-72
2022/01/04 20:37:16;;;;;;;0.63;0.63;;;5.10;99.90;;;;;;5093730;28;20246;-72